createdAt,value
2022-08-28T00:00:41.052Z,18.47
2022-08-28T00:02:58.186Z,18.42
2022-08-28T00:05:15.287Z,18.39
2022-08-28T00:07:32.630Z,18.40
2022-08-28T00:09:50.996Z,18.39
2022-08-28T00:12:08.218Z,18.30
2022-08-28T00:14:25.278Z,18.33
2022-08-28T00:16:42.331Z,18.34
2022-08-28T00:18:59.748Z,18.32
2022-08-28T00:21:17.853Z,18.35
2022-08-28T00:23:42.707Z,18.34
2022-08-28T00:26:00.295Z,18.34
2022-08-28T00:28:24.075Z,18.36
2022-08-28T00:30:41.480Z,18.37
2022-08-28T00:32:58.817Z,18.35
2022-08-28T00:35:16.091Z,18.37
2022-08-28T00:37:33.192Z,18.36
2022-08-28T00:39:50.206Z,18.33
2022-08-28T00:42:07.273Z,18.33
2022-08-28T00:44:24.215Z,18.35
2022-08-28T00:46:41.346Z,18.33
2022-08-28T00:48:58.426Z,18.35
2022-08-28T00:51:16.004Z,18.34
2022-08-28T00:53:33.249Z,18.36
2022-08-28T00:55:50.644Z,18.29
2022-08-28T00:58:08.194Z,18.26
2022-08-28T01:00:25.347Z,18.32
2022-08-28T01:02:42.609Z,18.35
2022-08-28T01:04:59.708Z,18.32
2022-08-28T01:07:17.800Z,18.31
2022-08-28T01:09:34.944Z,18.26
2022-08-28T01:11:52.091Z,18.30
2022-08-28T01:14:09.195Z,18.33
2022-08-28T01:16:28.370Z,18.30
2022-08-28T01:18:49.406Z,18.30
2022-08-28T01:21:06.465Z,18.31
2022-08-28T01:23:23.561Z,18.29
2022-08-28T01:25:40.656Z,18.33
2022-08-28T01:27:57.652Z,18.34
2022-08-28T01:30:14.718Z,18.39
2022-08-28T01:32:32.103Z,18.37
2022-08-28T01:34:49.400Z,18.34
2022-08-28T01:37:06.439Z,18.29
2022-08-28T01:39:23.900Z,18.33
2022-08-28T01:41:41.383Z,18.27
2022-08-28T01:43:58.500Z,18.21
2022-08-28T01:46:16.628Z,18.20
2022-08-28T01:48:33.760Z,18.15
2022-08-28T01:50:50.747Z,18.23
2022-08-28T01:53:07.782Z,18.17
2022-08-28T01:55:30.513Z,18.14
2022-08-28T01:57:47.486Z,18.15
2022-08-28T02:00:04.534Z,18.14
2022-08-28T02:02:22.022Z,18.11
2022-08-28T02:04:39.300Z,18.12
2022-08-28T02:06:56.289Z,18.18
2022-08-28T02:09:14.852Z,18.17
2022-08-28T02:11:33.274Z,18.19
2022-08-28T02:13:50.759Z,18.16
2022-08-28T02:16:08.182Z,18.13
2022-08-28T02:18:25.175Z,18.13
2022-08-28T02:20:42.205Z,18.13
2022-08-28T02:22:59.545Z,18.12
2022-08-28T02:25:16.860Z,18.12
2022-08-28T02:27:35.248Z,18.12
2022-08-28T02:29:52.222Z,18.13
2022-08-28T02:32:09.303Z,18.12
2022-08-28T02:34:27.238Z,18.13
2022-08-28T02:36:44.648Z,18.12
2022-08-28T02:39:01.697Z,18.11
2022-08-28T02:41:20.126Z,18.12
2022-08-28T02:43:37.495Z,18.15
2022-08-28T02:45:55.627Z,18.18
2022-08-28T02:48:16.954Z,18.14
2022-08-28T02:50:34.870Z,18.12
2022-08-28T02:52:51.997Z,18.11
2022-08-28T02:55:09.049Z,18.07
2022-08-28T02:57:26.422Z,18.06
2022-08-28T02:59:43.840Z,18.06
2022-08-28T03:02:00.936Z,18.05
2022-08-28T03:04:17.856Z,18.08
2022-08-28T03:06:35.150Z,18.06
2022-08-28T03:08:52.198Z,18.04
2022-08-28T03:11:09.265Z,18.01
2022-08-28T03:13:27.294Z,18.00
2022-08-28T03:15:45.526Z,17.97
2022-08-28T03:18:02.666Z,18.01
2022-08-28T03:20:28.587Z,17.94
2022-08-28T03:22:45.696Z,17.98
2022-08-28T03:25:02.800Z,17.98
2022-08-28T03:27:20.787Z,17.95
2022-08-28T03:29:37.870Z,17.94
2022-08-28T03:31:54.948Z,17.95
2022-08-28T03:34:11.960Z,17.94
2022-08-28T03:36:28.899Z,17.93
2022-08-28T03:38:45.879Z,17.95
2022-08-28T03:41:03.125Z,17.95
2022-08-28T03:43:20.165Z,17.96
2022-08-28T03:45:37.281Z,17.94
2022-08-28T03:47:54.641Z,17.94
2022-08-28T03:50:11.974Z,17.90
2022-08-28T03:52:29.665Z,17.93
2022-08-28T03:54:46.928Z,17.92
2022-08-28T03:57:04.236Z,17.88
2022-08-28T03:59:21.150Z,17.88
2022-08-28T04:01:43.227Z,17.91
2022-08-28T04:04:00.296Z,17.89
2022-08-28T04:06:17.276Z,17.87
2022-08-28T04:08:34.618Z,17.89
2022-08-28T04:10:51.891Z,17.90
2022-08-28T04:13:09.121Z,17.87
2022-08-28T04:15:26.300Z,17.87
2022-08-28T04:17:43.279Z,17.88
2022-08-28T04:20:01.396Z,17.83
2022-08-28T04:22:18.538Z,17.86
2022-08-28T04:24:35.879Z,17.87
2022-08-28T04:26:53.258Z,17.87
2022-08-28T04:29:10.509Z,17.89
2022-08-28T04:31:31.621Z,17.93
2022-08-28T04:33:49.684Z,17.95
2022-08-28T04:36:06.748Z,18.01
2022-08-28T04:38:24.044Z,18.01
2022-08-28T04:40:41.076Z,17.97
2022-08-28T04:42:58.143Z,17.94
2022-08-28T04:45:16.144Z,17.99
2022-08-28T04:47:33.501Z,17.99
2022-08-28T04:49:50.526Z,17.98
2022-08-28T04:52:07.602Z,18.02
2022-08-28T04:54:24.874Z,18.01
2022-08-28T04:56:42.900Z,17.99
2022-08-28T04:59:00.309Z,17.95
2022-08-28T05:01:17.632Z,18.00
2022-08-28T05:03:34.597Z,18.01
2022-08-28T05:05:51.692Z,18.03
2022-08-28T05:08:08.845Z,18.03
2022-08-28T05:10:26.097Z,18.03
2022-08-28T05:12:43.023Z,18.02
2022-08-28T05:15:00.103Z,18.03
2022-08-28T05:17:18.014Z,18.06
2022-08-28T05:19:35.057Z,18.08
2022-08-28T05:21:52.362Z,18.14
2022-08-28T05:24:09.689Z,18.16
2022-08-28T05:26:27.205Z,18.11
2022-08-28T05:28:46.657Z,18.16
2022-08-28T05:31:03.599Z,18.13
2022-08-28T05:33:20.705Z,18.12
2022-08-28T05:35:37.992Z,18.11
2022-08-28T05:37:55.031Z,18.11
2022-08-28T05:40:12.084Z,18.14
2022-08-28T05:42:31.047Z,18.17
2022-08-28T05:44:49.237Z,18.18
2022-08-28T05:47:11.670Z,18.20
2022-08-28T05:49:28.996Z,18.21
2022-08-28T05:51:46.523Z,18.29
2022-08-28T05:54:03.841Z,18.29
2022-08-28T05:56:21.105Z,18.34
2022-08-28T05:58:38.157Z,18.39
2022-08-28T06:00:55.124Z,18.37
2022-08-28T06:03:12.418Z,18.43
2022-08-28T06:05:29.440Z,18.46
2022-08-28T06:07:46.774Z,18.49
2022-08-28T06:10:03.753Z,18.50
2022-08-28T06:12:23.218Z,18.52
2022-08-28T06:14:40.588Z,18.54
2022-08-28T06:16:58.272Z,18.53
2022-08-28T06:19:16.411Z,18.67
2022-08-28T06:21:33.685Z,18.79
2022-08-28T06:23:50.970Z,18.79
2022-08-28T06:26:09.267Z,18.79
2022-08-28T06:28:26.623Z,18.87
2022-08-28T06:30:52.844Z,18.93
2022-08-28T06:33:20.530Z,18.98
2022-08-28T06:35:37.449Z,18.98
2022-08-28T06:37:54.924Z,19.07
2022-08-28T06:40:12.271Z,19.04
2022-08-28T06:42:29.300Z,19.07
2022-08-28T06:44:46.567Z,19.15
2022-08-28T06:47:03.569Z,19.16
2022-08-28T06:49:20.956Z,19.22
2022-08-28T06:51:38.996Z,19.31
2022-08-28T06:53:56.253Z,19.36
2022-08-28T06:56:13.732Z,19.36
2022-08-28T06:58:43.439Z,19.40
2022-08-28T07:01:07.294Z,19.47
2022-08-28T07:03:24.414Z,19.53
2022-08-28T07:05:41.401Z,19.64
2022-08-28T07:07:58.419Z,19.69
2022-08-28T07:10:15.687Z,19.64
2022-08-28T07:12:32.640Z,19.63
2022-08-28T07:14:49.685Z,19.70
2022-08-28T07:17:06.739Z,19.78
2022-08-28T07:19:23.726Z,19.77
2022-08-28T07:21:40.670Z,19.73
2022-08-28T07:23:57.778Z,19.70
2022-08-28T07:26:14.735Z,19.73
2022-08-28T07:28:31.683Z,19.76
2022-08-28T07:30:49.018Z,19.83
2022-08-28T07:33:06.343Z,20.06
2022-08-28T07:35:23.444Z,20.08
2022-08-28T07:37:41.010Z,20.22
2022-08-28T07:39:58.274Z,20.39
2022-08-28T07:42:16.235Z,20.54
2022-08-28T07:44:33.320Z,20.63
2022-08-28T07:46:50.375Z,20.76
2022-08-28T07:49:07.367Z,20.91
2022-08-28T07:51:24.734Z,21.00
2022-08-28T07:53:41.631Z,21.02
2022-08-28T07:55:59.014Z,21.12
2022-08-28T07:58:16.014Z,21.26
2022-08-28T08:00:32.974Z,21.37
2022-08-28T08:02:50.892Z,21.43
2022-08-28T08:05:08.187Z,21.63
2022-08-28T08:07:25.100Z,21.72
2022-08-28T08:09:42.380Z,21.66
2022-08-28T08:12:00.238Z,21.69
2022-08-28T08:14:17.555Z,21.71
2022-08-28T08:16:34.803Z,21.84
2022-08-28T08:18:51.922Z,21.97
2022-08-28T08:21:09.198Z,21.99
2022-08-28T08:23:26.144Z,22.12
2022-08-28T08:25:43.406Z,22.13
2022-08-28T08:28:00.698Z,22.13
2022-08-28T08:30:17.988Z,21.91
2022-08-28T08:32:36.074Z,21.87
2022-08-28T08:34:54.380Z,21.78
2022-08-28T08:37:11.351Z,21.73
2022-08-28T08:39:28.635Z,21.62
2022-08-28T08:41:49.097Z,21.68
2022-08-28T08:44:06.457Z,21.69
2022-08-28T08:46:23.458Z,21.82
2022-08-28T08:48:40.439Z,21.94
2022-08-28T08:50:57.753Z,22.17
2022-08-28T08:53:14.835Z,22.33
2022-08-28T08:55:32.144Z,22.66
2022-08-28T08:57:49.425Z,22.84
2022-08-28T09:00:06.601Z,23.06
2022-08-28T09:02:26.351Z,23.21
2022-08-28T09:04:48.553Z,23.35
2022-08-28T09:07:06.018Z,23.52
2022-08-28T09:09:23.534Z,23.23
2022-08-28T09:11:40.570Z,23.40
2022-08-28T09:13:57.973Z,23.61
2022-08-28T09:16:15.078Z,23.90
2022-08-28T09:18:32.422Z,23.80
2022-08-28T09:20:49.392Z,23.97
2022-08-28T09:23:13.147Z,24.08
2022-08-28T09:25:31.074Z,24.30
2022-08-28T09:27:48.044Z,24.41
2022-08-28T09:30:08.053Z,24.43
2022-08-28T09:32:25.461Z,24.60
2022-08-28T09:34:44.811Z,24.48
2022-08-28T09:37:01.862Z,24.55
2022-08-28T09:39:18.952Z,24.48
2022-08-28T09:41:35.965Z,24.39
2022-08-28T09:43:52.969Z,24.57
2022-08-28T09:46:10.046Z,24.77
2022-08-28T09:48:27.423Z,25.12
2022-08-28T09:50:44.406Z,25.04
2022-08-28T09:53:01.470Z,25.23
2022-08-28T09:55:18.818Z,25.22
2022-08-28T09:57:36.055Z,25.29
2022-08-28T09:59:53.079Z,25.10
2022-08-28T10:02:10.521Z,25.24
2022-08-28T10:04:27.733Z,25.13
2022-08-28T10:06:44.778Z,25.01
2022-08-28T10:09:01.896Z,24.57
2022-08-28T10:11:19.687Z,24.43
2022-08-28T10:13:36.940Z,24.75
2022-08-28T10:15:54.057Z,24.88
2022-08-28T10:18:11.304Z,25.05
2022-08-28T10:20:28.627Z,24.90
2022-08-28T10:22:46.704Z,24.84
2022-08-28T10:25:03.709Z,24.89
2022-08-28T10:27:20.765Z,24.92
2022-08-28T10:29:39.115Z,25.01
2022-08-28T10:31:56.679Z,25.15
2022-08-28T10:34:13.722Z,25.04
2022-08-28T10:36:34.054Z,25.38
2022-08-28T10:38:53.632Z,25.55
2022-08-28T10:41:11.061Z,25.38
2022-08-28T10:43:28.419Z,25.29
2022-08-28T10:45:45.473Z,25.53
2022-08-28T10:48:02.553Z,25.73
2022-08-28T10:50:19.638Z,25.78
2022-08-28T10:52:37.605Z,25.80
2022-08-28T10:54:54.654Z,25.81
2022-08-28T10:57:11.644Z,25.61
2022-08-28T10:59:28.627Z,25.85
2022-08-28T11:01:45.792Z,26.02
2022-08-28T11:04:02.857Z,26.29
2022-08-28T11:06:21.113Z,26.51
2022-08-28T11:08:38.556Z,26.37
2022-08-28T11:10:55.574Z,26.57
2022-08-28T11:13:12.792Z,26.80
2022-08-28T11:15:36.823Z,26.85
2022-08-28T11:17:54.706Z,26.43
2022-08-28T11:20:11.643Z,26.30
2022-08-28T11:22:28.965Z,26.09
2022-08-28T11:24:47.805Z,25.80
2022-08-28T11:27:04.782Z,25.51
2022-08-28T11:29:22.748Z,25.43
2022-08-28T11:31:39.891Z,25.39
2022-08-28T11:33:56.965Z,25.42
2022-08-28T11:36:14.261Z,25.35
2022-08-28T11:38:31.472Z,25.17
2022-08-28T11:40:48.876Z,25.31
2022-08-28T11:43:06.192Z,25.14
2022-08-28T11:45:23.240Z,25.10
2022-08-28T11:47:40.505Z,25.12
2022-08-28T11:49:57.883Z,25.13
2022-08-28T11:52:14.884Z,25.36
2022-08-28T11:54:31.961Z,25.56
2022-08-28T11:56:48.939Z,25.68
2022-08-28T11:59:08.130Z,26.02
2022-08-28T12:01:27.298Z,26.11
2022-08-28T12:03:44.565Z,26.15
2022-08-28T12:06:01.483Z,26.26
2022-08-28T12:08:18.813Z,26.20
2022-08-28T12:10:35.932Z,25.87
2022-08-28T12:12:53.231Z,25.69
2022-08-28T12:15:10.766Z,25.66
2022-08-28T12:17:31.102Z,25.70
2022-08-28T12:19:55.468Z,25.87
2022-08-28T12:22:13.198Z,25.92
2022-08-28T12:24:30.522Z,26.02
2022-08-28T12:26:47.829Z,26.04
2022-08-28T12:29:05.226Z,26.10
2022-08-28T12:31:22.632Z,26.05
2022-08-28T12:33:39.574Z,26.07
2022-08-28T12:35:56.570Z,25.97
2022-08-28T12:38:13.862Z,25.87
2022-08-28T12:40:31.204Z,26.14
2022-08-28T12:42:51.984Z,26.38
2022-08-28T12:45:11.387Z,26.74
2022-08-28T12:47:28.454Z,27.17
2022-08-28T12:49:45.700Z,27.40
2022-08-28T12:52:04.609Z,27.61
2022-08-28T12:54:22.653Z,27.81
2022-08-28T12:56:39.691Z,27.70
2022-08-28T12:58:56.730Z,27.77
2022-08-28T13:01:13.813Z,27.98
2022-08-28T13:03:31.149Z,28.22
2022-08-28T13:05:48.199Z,28.48
2022-08-28T13:08:05.192Z,28.46
2022-08-28T13:10:22.300Z,28.18
2022-08-28T13:12:55.863Z,28.31
2022-08-28T13:15:14.671Z,28.24
2022-08-28T13:17:41.493Z,27.93
2022-08-28T13:19:58.606Z,27.99
2022-08-28T13:22:16.552Z,28.01
2022-08-28T13:24:33.637Z,27.73
2022-08-28T13:26:50.870Z,27.57
2022-08-28T13:29:07.907Z,27.82
2022-08-28T13:31:24.979Z,27.82
2022-08-28T13:33:41.915Z,27.94
2022-08-28T13:35:59.153Z,27.61
2022-08-28T13:38:16.126Z,27.35
2022-08-28T13:43:10.174Z,27.17
2022-08-28T13:45:31.512Z,27.15
2022-08-28T13:48:00.330Z,27.01
2022-08-28T13:50:17.675Z,26.74
2022-08-28T13:52:34.936Z,26.94
2022-08-28T13:54:53.152Z,27.14
2022-08-28T13:57:10.183Z,27.30
2022-08-28T13:59:28.224Z,27.42
2022-08-28T14:01:45.270Z,27.44
2022-08-28T14:04:02.269Z,27.53
2022-08-28T14:06:19.326Z,27.59
2022-08-28T14:08:39.894Z,27.71
2022-08-28T14:10:56.801Z,27.93
2022-08-28T14:13:13.986Z,28.14
2022-08-28T14:15:31.135Z,28.24
2022-08-28T14:17:48.066Z,28.23
2022-08-28T14:20:05.010Z,28.30
2022-08-28T14:22:22.113Z,28.38
2022-08-28T14:24:39.392Z,28.34
2022-08-28T14:26:56.455Z,28.09
2022-08-28T14:29:13.705Z,27.96
2022-08-28T14:31:30.694Z,27.78
2022-08-28T14:33:47.861Z,27.54
2022-08-28T14:36:05.959Z,27.55
2022-08-28T14:38:23.387Z,27.56
2022-08-28T14:40:40.484Z,27.54
2022-08-28T14:42:57.909Z,27.53
2022-08-28T14:45:14.930Z,27.73
2022-08-28T14:47:32.010Z,27.63
2022-08-28T14:49:49.085Z,27.90
2022-08-28T14:52:06.070Z,28.10
2022-08-28T14:54:23.159Z,28.21
2022-08-28T14:56:40.172Z,28.12
2022-08-28T14:58:57.145Z,28.23
2022-08-28T15:01:14.190Z,28.30
2022-08-28T15:03:31.211Z,28.33
2022-08-28T15:05:48.327Z,28.34
2022-08-28T15:08:05.331Z,28.39
2022-08-28T15:10:22.262Z,28.51
2022-08-28T15:12:39.332Z,28.38
2022-08-28T15:14:59.566Z,28.14
2022-08-28T15:17:16.528Z,27.90
2022-08-28T15:19:33.633Z,27.45
2022-08-28T15:21:50.675Z,27.40
2022-08-28T15:24:08.928Z,27.57
2022-08-28T15:26:26.274Z,27.70
2022-08-28T15:28:43.509Z,27.81
2022-08-28T15:31:00.599Z,27.70
2022-08-28T15:33:17.521Z,27.65
2022-08-28T15:35:34.493Z,27.67
2022-08-28T15:37:51.492Z,27.82
2022-08-28T15:40:08.462Z,27.95
2022-08-28T15:42:25.455Z,27.82
2022-08-28T15:44:42.523Z,27.91
2022-08-28T15:46:59.526Z,27.90
2022-08-28T15:49:16.823Z,27.74
2022-08-28T15:51:33.956Z,27.73
2022-08-28T15:53:51.209Z,27.81
2022-08-28T15:56:08.556Z,27.91
2022-08-28T15:58:25.556Z,28.02
2022-08-28T16:00:42.913Z,27.85
2022-08-28T16:02:59.922Z,27.75
2022-08-28T16:05:17.203Z,27.77
2022-08-28T16:07:35.552Z,27.60
2022-08-28T16:09:52.884Z,27.69
2022-08-28T16:12:09.849Z,27.56
2022-08-28T16:14:27.139Z,27.51
2022-08-28T16:16:46.414Z,27.48
2022-08-28T16:19:06.192Z,27.47
2022-08-28T16:21:23.124Z,27.23
2022-08-28T16:23:44.564Z,27.13
2022-08-28T16:26:01.518Z,27.12
2022-08-28T16:28:18.558Z,26.99
2022-08-28T16:30:36.100Z,27.01
2022-08-28T16:32:54.189Z,26.92
2022-08-28T16:35:11.387Z,26.87
2022-08-28T16:37:36.323Z,26.88
2022-08-28T16:39:57.082Z,26.83
2022-08-28T16:42:14.158Z,26.85
2022-08-28T16:44:32.090Z,26.83
2022-08-28T16:46:49.418Z,26.79
2022-08-28T16:49:06.402Z,26.73
2022-08-28T16:51:23.543Z,26.76
2022-08-28T16:53:40.861Z,26.52
2022-08-28T16:55:58.153Z,26.54
2022-08-28T16:58:17.129Z,26.45
2022-08-28T17:00:34.619Z,26.33
2022-08-28T17:03:02.635Z,26.20
2022-08-28T17:05:19.953Z,26.17
2022-08-28T17:07:36.996Z,26.08
2022-08-28T17:09:54.241Z,25.98
2022-08-28T17:12:11.598Z,25.90
2022-08-28T17:14:29.774Z,25.80
2022-08-28T17:16:46.731Z,25.81
2022-08-28T17:19:04.130Z,25.72
2022-08-28T17:21:22.210Z,25.71
2022-08-28T17:23:39.462Z,25.64
2022-08-28T17:25:56.475Z,25.59
2022-08-28T17:28:13.640Z,25.45
2022-08-28T17:30:30.987Z,25.31
2022-08-28T17:32:48.275Z,25.16
2022-08-28T17:35:05.263Z,24.98
2022-08-28T17:37:23.148Z,24.90
2022-08-28T17:39:40.117Z,24.75
2022-08-28T17:41:57.014Z,24.64
2022-08-28T17:44:14.268Z,24.48
2022-08-28T17:46:35.386Z,24.33
2022-08-28T17:48:56.039Z,24.20
2022-08-28T17:51:13.441Z,23.90
2022-08-28T17:53:33.361Z,23.78
2022-08-28T17:55:50.492Z,23.70
2022-08-28T17:58:07.827Z,23.46
2022-08-28T18:00:25.143Z,23.26
2022-08-28T18:02:42.214Z,23.14
2022-08-28T18:04:59.164Z,23.06
2022-08-28T18:07:18.676Z,22.97
2022-08-28T18:09:35.983Z,22.79
2022-08-28T18:11:53.080Z,22.69
2022-08-28T18:14:11.187Z,22.63
2022-08-28T18:16:31.348Z,22.50
2022-08-28T18:18:48.726Z,22.33
2022-08-28T18:21:06.057Z,22.26
2022-08-28T18:23:23.374Z,22.11
2022-08-28T18:25:40.645Z,22.00
2022-08-28T18:27:59.474Z,21.93
2022-08-28T18:30:16.852Z,21.80
2022-08-28T18:32:34.929Z,21.70
2022-08-28T18:34:52.053Z,21.58
2022-08-28T18:37:09.296Z,21.50
2022-08-28T18:39:29.459Z,21.37
2022-08-28T18:41:47.024Z,21.27
2022-08-28T18:44:04.855Z,21.19
2022-08-28T18:46:23.170Z,21.10
2022-08-28T18:48:40.192Z,21.01
2022-08-28T18:50:57.152Z,20.96
2022-08-28T18:53:14.143Z,20.88
2022-08-28T18:55:32.056Z,20.83
2022-08-28T18:57:49.397Z,20.75
2022-08-28T19:00:09.022Z,20.70
2022-08-28T19:02:26.033Z,20.62
2022-08-28T19:04:43.135Z,20.49
2022-08-28T19:07:00.110Z,20.44
2022-08-28T19:09:18.604Z,20.38
2022-08-28T19:11:38.054Z,20.34
2022-08-28T19:13:56.413Z,20.25
2022-08-28T19:16:13.419Z,20.15
2022-08-28T19:18:30.715Z,20.08
2022-08-28T19:20:47.743Z,20.01
2022-08-28T19:23:04.697Z,19.97
2022-08-28T19:25:23.327Z,19.91
2022-08-28T19:27:46.026Z,19.77
2022-08-28T19:30:06.007Z,19.71
2022-08-28T19:32:27.146Z,19.65
2022-08-28T19:34:44.227Z,19.59
2022-08-28T19:37:01.582Z,19.49
2022-08-28T19:39:18.810Z,19.39
2022-08-28T19:41:36.109Z,19.36
2022-08-28T19:43:53.342Z,19.31
2022-08-28T19:46:14.088Z,19.23
2022-08-28T19:48:36.993Z,19.13
2022-08-28T19:50:54.284Z,19.05
2022-08-28T19:53:11.296Z,18.93
2022-08-28T19:55:28.290Z,18.82
2022-08-28T19:57:46.372Z,18.80
2022-08-28T20:00:03.583Z,18.69
2022-08-28T20:02:20.890Z,18.61
2022-08-28T20:04:37.975Z,18.51
2022-08-28T20:06:55.018Z,18.42
2022-08-28T20:09:14.343Z,18.40
2022-08-28T20:11:31.286Z,18.31
2022-08-28T20:13:48.581Z,18.27
2022-08-28T20:16:05.736Z,18.17
2022-08-28T20:18:23.675Z,18.06
2022-08-28T20:20:40.735Z,18.05
2022-08-28T20:22:58.019Z,18.01
2022-08-28T20:25:16.314Z,18.02
2022-08-28T20:27:33.559Z,17.92
2022-08-28T20:29:50.601Z,17.85
2022-08-28T20:32:07.631Z,17.79
2022-08-28T20:34:24.592Z,17.75
2022-08-28T20:36:41.926Z,17.73
2022-08-28T20:38:59.261Z,17.68
2022-08-28T20:41:16.315Z,17.65
2022-08-28T20:43:33.947Z,17.58
2022-08-28T20:45:51.310Z,17.54
2022-08-28T20:48:08.317Z,17.52
2022-08-28T20:50:25.424Z,17.51
2022-08-28T20:52:42.700Z,17.48
2022-08-28T20:54:59.979Z,17.43
2022-08-28T20:57:17.518Z,17.38
2022-08-28T20:59:40.129Z,17.34
2022-08-28T21:01:57.549Z,17.30
2022-08-28T21:04:14.457Z,17.30
2022-08-28T21:06:31.759Z,17.26
2022-08-28T21:08:48.805Z,17.29
2022-08-28T21:11:06.449Z,17.25
2022-08-28T21:13:23.410Z,17.27
2022-08-28T21:15:40.314Z,17.19
2022-08-28T21:17:57.261Z,17.09
2022-08-28T21:20:14.207Z,17.09
2022-08-28T21:22:31.611Z,17.17
2022-08-28T21:24:48.734Z,17.02
2022-08-28T21:27:06.084Z,17.05
2022-08-28T21:29:26.532Z,17.04
2022-08-28T21:31:43.853Z,16.99
2022-08-28T21:34:00.949Z,16.96
2022-08-28T21:36:17.943Z,16.85
2022-08-28T21:38:36.261Z,16.86
2022-08-28T21:40:53.556Z,16.77
2022-08-28T21:43:10.778Z,16.75
2022-08-28T21:45:27.844Z,16.72
2022-08-28T21:47:44.743Z,16.72
2022-08-28T21:50:01.735Z,16.62
2022-08-28T21:52:19.014Z,16.55
2022-08-28T21:54:36.043Z,16.52
2022-08-28T21:56:58.758Z,16.54
2022-08-28T21:59:16.326Z,16.44
2022-08-28T22:01:33.373Z,16.43
2022-08-28T22:03:50.773Z,16.38
2022-08-28T22:06:08.048Z,16.40
2022-08-28T22:08:25.065Z,16.31
2022-08-28T22:10:41.997Z,16.27
2022-08-28T22:12:58.935Z,16.19
2022-08-28T22:15:16.183Z,16.12
2022-08-28T22:17:33.495Z,16.09
2022-08-28T22:19:50.543Z,16.07
2022-08-28T22:22:07.593Z,15.98
2022-08-28T22:24:24.569Z,15.93
2022-08-28T22:26:41.590Z,15.96
2022-08-28T22:28:58.878Z,15.99
2022-08-28T22:31:16.097Z,15.90
2022-08-28T22:33:35.006Z,15.87
2022-08-28T22:35:52.283Z,15.77
2022-08-28T22:38:09.231Z,15.74
2022-08-28T22:40:27.177Z,15.63
2022-08-28T22:42:44.239Z,15.55
2022-08-28T22:45:01.369Z,15.54
2022-08-28T22:47:18.994Z,15.48
2022-08-28T22:49:39.633Z,15.41
2022-08-28T22:51:57.176Z,15.39
2022-08-28T22:54:14.827Z,15.31
2022-08-28T22:56:31.805Z,15.26
2022-08-28T22:58:48.904Z,15.25
2022-08-28T23:01:05.984Z,15.21
2022-08-28T23:03:26.196Z,15.15
2022-08-28T23:05:46.276Z,15.16
2022-08-28T23:08:04.239Z,15.18
2022-08-28T23:10:32.093Z,15.08
2022-08-28T23:12:58.228Z,15.03
2022-08-28T23:15:15.317Z,14.98
2022-08-28T23:17:32.440Z,14.95
2022-08-28T23:19:50.300Z,14.99
2022-08-28T23:22:08.374Z,14.96
2022-08-28T23:24:25.551Z,14.90
2022-08-28T23:26:42.677Z,14.81
2022-08-28T23:28:59.787Z,14.80
2022-08-28T23:31:16.819Z,14.79
2022-08-28T23:33:33.895Z,14.72
2022-08-28T23:35:52.402Z,14.68
2022-08-28T23:38:09.492Z,14.62
2022-08-28T23:40:26.722Z,14.56
2022-08-28T23:42:46.819Z,14.54
2022-08-28T23:45:05.956Z,14.53
2022-08-28T23:47:24.309Z,14.47
2022-08-28T23:49:42.722Z,14.42
2022-08-28T23:52:00.369Z,14.36
2022-08-28T23:54:20.788Z,14.32
2022-08-28T23:56:39.198Z,14.29
2022-08-28T23:58:56.105Z,14.29
